Latest Weather Observations for Jacup

IDW60801

Issued at 10:13 pm WST Saturday 25 May 2019 (issued every 10 minutes, with the page automatically refreshed every 10 minutes)

About weather observations | Map of weather stations | Latest weather observations for WA | Other Formats
Station Details ID: 010905 Name: JACUP Lat: -33.89 Lon: 119.11 Height: 305.0 m
Data from the previous 72 hours. | See also: Recent months at Jacup
Date/Time
WST
Temp
°C
App
Temp
°C
Dew
Point
°C
Rel
Hum
%
Delta-T
°C
Wind Press
QNH
hPa
Press
MSL
hPa
Rain since
9am
mm
Dir  Spd
km/h
Gust
km/h
Spd
kts
Gust
kts
25/10:00pm 8.2 7.5 7.1 93 0.5 CALM 0 0 0 0 1026.7 1026.5 0.0
25/09:30pm 6.6 5.5 5.2 91 0.6 CALM 0 0 0 0 1026.7 1026.5 0.0
25/09:00pm 7.9 7.1 6.7 92 0.6 CALM 0 0 0 0 1026.7 1026.5 0.0
25/08:30pm 7.3 6.4 5.9 91 0.6 CALM 0 0 0 0 1026.8 1026.6 0.0
25/08:00pm 7.4 5.3 5.9 90 0.7 ESE 6 7 3 4 1026.6 1026.4 0.0
25/07:30pm 7.5 5.4 5.8 89 0.8 ESE 6 7 3 4 1026.5 1026.3 0.0
25/07:00pm 7.9 5.8 5.9 87 0.9 ESE 6 7 3 4 1026.1 1025.9 0.0
25/06:30pm 8.9 6.9 6.3 84 1.2 ESE 6 7 3 4 1025.9 1025.6 0.0
25/06:00pm 9.7 7.7 6.2 79 1.6 ESE 6 9 3 5 1025.7 1025.4 0.0
25/05:30pm 11.6 9.3 7.5 76 2.0 SE 9 13 5 7 1025.4 1025.1 0.0
25/05:00pm 13.1 10.1 7.8 70 2.6 SE 13 17 7 9 1025.1 1024.8 0.0
25/04:30pm 14.5 11.1 7.5 63 3.5 SSE 15 20 8 11 1025.2 1024.9 0.0
25/04:00pm 15.6 12.3 7.9 60 3.9 SE 15 20 8 11 1025.2 1024.9 0.0
25/03:30pm 16.1 13.3 7.1 55 4.5 SSE 11 19 6 10 1024.9 1024.6 0.0
25/03:00pm 16.5 12.8 6.3 51 5.0 SSE 15 20 8 11 1024.7 1024.4 0.0
25/02:30pm 17.1 15.1 6.9 51 5.1 S 7 15 4 8 1024.5 1024.2 0.0
25/02:00pm 16.2 14.3 6.6 53 4.8 SW 6 13 3 7 1024.7 1024.4 0.0
25/01:30pm 15.7 12.5 6.7 55 4.5 SSW 13 19 7 10 1024.9 1024.6 0.0
25/01:00pm 16.1 13.8 7.3 56 4.4 SSW 9 17 5 9 1024.9 1024.6 0.0
25/12:30pm 15.7 13.3 7.2 57 4.3 S 9 15 5 8 1025.2 1024.9 0.0
25/12:00pm 17.0 15.2 7.1 52 5.0 S 6 13 3 7 1025.6 1025.3 0.0
25/11:30am 15.1 11.9 6.9 58 4.1 S 13 19 7 10 1026.1 1025.9 0.0
25/11:00am 14.6 11.5 7.4 62 3.6 S 13 19 7 10 1026.3 1026.1 0.0
25/10:30am 14.6 12.6 8.8 68 3.0 SSW 9 17 5 9 1026.4 1026.2 0.0
25/10:00am 14.6 12.0 9.4 71 2.7 SSW 13 22 7 12 1026.4 1026.2 0.0
25/09:30am 13.7 12.2 11.9 89 1.0 SSW 11 15 6 8 1026.5 1026.3 0.0
25/09:00am 12.1 10.4 11.2 94 0.5 SSW 11 17 6 9 1026.4 1026.2 0.2
25/08:30am 11.5 9.3 10.7 95 0.4 SSW 13 22 7 12 1026.2 1026.0 0.2
25/08:00am 10.4 7.9 9.8 96 0.3 SSW 13 17 7 9 1026.0 1025.8 0.2
25/07:30am 8.6 5.2 7.8 95 0.4 SSW 15 19 8 10 1025.6 1025.3 0.2
25/07:00am 6.8 4.2 6.1 95 0.3 SW 9 13 5 7 1025.3 1025.0 0.2
25/06:30am 4.7 1.6 3.8 94 0.4 W 9 11 5 6 1025.0 1024.7 0.2
25/06:00am 5.7 2.8 4.8 94 0.4 W 9 11 5 6 1024.7 1024.4 0.2
25/05:30am 6.2 3.0 5.3 94 0.4 W 11 13 6 7 1024.6 1024.3 0.0
25/05:00am 6.7 3.3 5.8 94 0.4 W 13 17 7 9 1024.7 1024.4 0.0
25/04:30am 6.6 3.5 5.7 94 0.4 W 11 15 6 8 1024.5 1024.2 0.0
25/04:00am 6.4 3.3 5.5 94 0.4 W 11 13 6 7 1024.4 1024.1 0.0
25/03:30am 6.6 3.9 5.7 94 0.4 W 9 9 5 5 1024.4 1024.1 0.0
25/03:00am 6.9 3.9 6.0 94 0.4 W 11 13 6 7 1024.4 1024.1 0.0
25/02:30am 6.6 3.9 5.6 93 0.5 W 9 11 5 6 1024.5 1024.2 0.0
25/02:00am 7.0 4.4 5.9 93 0.5 W 9 11 5 6 1024.5 1024.2 0.0
25/01:30am 7.7 4.8 6.6 93 0.5 W 11 13 6 7 1024.4 1024.1 0.0
25/01:00am 7.3 4.7 6.2 93 0.5 W 9 11 5 6 1024.2 1024.0 0.0
25/12:30am 7.7 5.2 6.6 93 0.5 W 9 11 5 6 1024.1 1023.9 0.0
25/12:00am 8.1 5.7 6.9 92 0.6 W 9 11 5 6 1024.1 1023.9 0.0
 
Date/Time
WST
Temp
°C
App
Temp
°C
Dew
Point
°C
Rel
Hum
%
Delta-T
°C
Wind Press
QNH
hPa
Press
MSL
hPa
Rain since
9am
mm
Dir  Spd
km/h
Gust
km/h
Spd
kts
Gust
kts
24/11:30pm 8.3 6.5 7.1 92 0.6 SW 6 11 3 6 1024.0 1023.8 0.0
24/11:00pm 8.4 7.8 7.2 92 0.6 CALM 0 0 0 0 1023.9 1023.7 0.0
24/10:30pm 8.8 8.2 7.4 91 0.7 CALM 0 0 0 0 1023.9 1023.7 0.0
24/10:00pm 9.5 8.7 8.1 91 0.7 SW 2 7 1 4 1024.0 1023.8 0.0
24/09:30pm 10.0 8.5 8.4 90 0.8 SW 6 7 3 4 1023.9 1023.7 0.0
24/09:00pm 10.6 9.2 8.9 89 0.9 SW 6 9 3 5 1023.7 1023.5 0.0
24/08:30pm 11.0 10.8 8.9 87 1.1 CALM 0 0 0 0 1023.6 1023.4 0.0
24/08:00pm 11.8 11.5 8.8 82 1.5 CALM 0 0 0 0 1023.4 1023.2 0.0
24/07:30pm 13.7 12.4 9.9 78 2.0 SW 7 9 4 5 1023.3 1023.1 0.0
24/07:00pm 13.3 11.7 8.0 70 2.7 WSW 6 15 3 8 1023.0 1022.7 0.0
24/06:30pm 13.8 11.6 7.8 67 3.0 W 9 13 5 7 1022.6 1022.3 0.0
24/06:00pm 14.6 12.5 8.3 66 3.2 W 9 13 5 7 1022.2 1021.9 0.0
24/05:30pm 14.4 12.3 8.1 66 3.2 W 9 11 5 6 1022.2 1021.9 0.0
24/05:00pm 15.4 12.6 8.4 63 3.6 W 13 20 7 11 1022.0 1021.7 0.0
24/04:30pm 16.8 12.7 8.0 56 4.5 WSW 19 26 10 14 1022.1 1021.8 0.0
24/04:00pm 17.2 13.3 8.6 57 4.5 WSW 19 28 10 15 1021.8 1021.5 0.0
24/03:30pm 17.2 13.7 8.9 58 4.4 WSW 17 28 9 15 1021.8 1021.5 0.0
24/03:00pm 17.6 13.8 9.2 58 4.4 WSW 19 35 10 19 1021.5 1021.2 0.0
24/02:30pm 17.0 13.8 9.9 63 3.8 W 17 24 9 13 1021.5 1021.2 0.0
24/02:00pm 17.4 13.7 10.1 62 3.9 WSW 20 30 11 16 1021.4 1021.1 0.0
24/01:30pm 16.9 13.7 9.8 63 3.8 WSW 17 28 9 15 1021.5 1021.2 0.0
24/01:00pm 17.0 13.2 9.7 62 3.9 W 20 32 11 17 1021.5 1021.2 0.0
24/12:30pm 17.4 13.5 9.6 60 4.2 W 20 32 11 17 1021.5 1021.2 0.0
24/12:00pm 16.8 12.9 9.5 62 3.9 WSW 20 32 11 17 1022.0 1021.7 0.0
24/11:30am 16.5 13.3 9.9 65 3.5 WSW 17 26 9 14 1022.4 1022.1 0.0
24/11:00am 15.8 12.8 10.6 71 2.8 W 17 28 9 15 1022.8 1022.5 0.0
24/10:30am 15.1 12.1 10.5 74 2.5 W 17 22 9 12 1022.9 1022.6 0.0
24/10:00am 13.8 10.7 10.2 79 1.9 WNW 17 22 9 12 1023.1 1022.9 0.0
24/09:30am 12.9 10.1 9.9 82 1.6 W 15 22 8 12 1023.0 1022.7 0.0
24/09:00am 12.4 9.7 10.3 87 1.1 W 15 26 8 14 1022.9 1022.6 0.0
24/08:30am 11.6 8.6 10.5 93 0.6 W 17 22 9 12 1022.8 1022.5 0.0
24/08:00am 10.1 7.9 9.2 94 0.5 W 11 17 6 9 1022.5 1022.2 0.0
24/07:30am 8.7 6.1 7.8 94 0.4 W 11 15 6 8 1022.4 1022.1 0.0
24/07:00am 8.1 5.3 7.0 93 0.5 WNW 11 17 6 9 1022.4 1022.1 0.0
24/06:30am 8.4 5.3 7.3 93 0.5 WNW 13 17 7 9 1022.5 1022.2 0.0
24/06:00am 8.4 6.1 7.3 93 0.5 WNW 9 13 5 7 1022.5 1022.2 0.0
24/05:30am 8.7 6.0 7.5 92 0.6 W 11 17 6 9 1022.3 1022.0 0.0
24/05:00am 8.7 5.7 7.5 92 0.6 WNW 13 17 7 9 1022.1 1021.8 0.0
24/04:30am 9.1 5.8 7.9 92 0.6 WNW 15 20 8 11 1022.2 1021.9 0.0
24/04:00am 8.8 5.7 7.4 91 0.7 WNW 13 19 7 10 1022.1 1021.8 0.0
24/03:30am 8.6 5.5 7.2 91 0.7 WNW 13 19 7 10 1022.1 1021.8 0.0
24/03:00am 9.1 5.7 7.5 90 0.8 WNW 15 22 8 12 1022.1 1021.8 0.0
24/02:30am 9.5 6.2 7.9 90 0.8 WNW 15 20 8 11 1022.3 1022.0 0.0
24/02:00am 9.1 6.4 7.5 90 0.8 W 11 20 6 11 1022.2 1021.9 0.0
24/01:30am 8.8 5.6 6.9 88 0.9 WNW 13 17 7 9 1022.2 1021.9 0.0
24/01:00am 8.8 6.0 6.9 88 0.9 WNW 11 17 6 9 1022.3 1022.0 0.0
24/12:30am 8.6 5.7 6.4 86 1.0 W 11 15 6 8 1022.3 1022.0 0.0
24/12:00am 9.1 6.2 6.7 85 1.1 WNW 11 17 6 9 1022.4 1022.1 0.0
 
Date/Time
WST
Temp
°C
App
Temp
°C
Dew
Point
°C
Rel
Hum
%
Delta-T
°C
Wind Press
QNH
hPa
Press
MSL
hPa
Rain since
9am
mm
Dir  Spd
km/h
Gust
km/h
Spd
kts
Gust
kts
23/11:30pm 9.3 6.5 6.9 85 1.1 WNW 11 15 6 8 1022.4 1022.1 0.0
23/11:00pm 8.7 6.1 6.2 84 1.2 WNW 9 13 5 7 1022.4 1022.1 0.0
23/10:30pm 9.1 6.5 6.2 82 1.4 WNW 9 11 5 6 1022.6 1022.3 0.0
23/10:00pm 9.7 7.2 6.4 80 1.6 WNW 9 13 5 7 1022.6 1022.3 0.0
23/09:30pm 10.6 7.8 6.9 78 1.8 WNW 11 15 6 8 1022.8 1022.5 0.0
23/09:00pm 11.1 8.3 7.0 76 2.0 WNW 11 15 6 8 1022.8 1022.5 0.0
23/08:30pm 11.3 8.5 7.0 75 2.1 WNW 11 17 6 9 1022.7 1022.4 0.0
23/08:00pm 11.0 8.5 6.4 73 2.2 WNW 9 13 5 7 1022.7 1022.4 0.0
23/07:30pm 11.4 8.9 6.5 72 2.4 WNW 9 11 5 6 1022.4 1022.1 0.0
23/07:00pm 11.6 9.1 6.5 71 2.4 WNW 9 11 5 6 1022.3 1022.0 0.0
23/06:30pm 12.3 10.3 7.0 70 2.6 WNW 7 11 4 6 1022.2 1021.9 0.0
23/06:00pm 12.8 10.8 7.0 68 2.8 W 7 9 4 5 1022.1 1021.8 0.0
23/05:30pm 14.1 12.1 7.2 63 3.4 W 7 9 4 5 1021.9 1021.6 0.0
23/05:00pm 16.5 14.3 7.7 56 4.5 WSW 9 11 5 6 1021.9 1021.6 0.0
23/04:30pm 18.3 14.9 7.7 50 5.5 W 15 24 8 13 1021.8 1021.5 0.0
23/04:00pm 18.1 15.6 8.1 52 5.2 W 11 20 6 11 1021.9 1021.6 0.0
23/03:30pm 18.6 15.3 8.0 50 5.5 W 15 20 8 11 1021.8 1021.5 0.0
23/03:00pm 19.2 15.6 8.2 49 5.7 WNW 17 26 9 14 1021.7 1021.4 0.0
23/02:30pm 19.9 16.4 8.6 48 6.0 WNW 17 26 9 14 1021.5 1021.2 0.0
23/02:00pm 19.9 16.3 8.3 47 6.1 W 17 30 9 16 1021.5 1021.2 0.0
23/01:30pm 17.6 13.9 7.9 53 5.0 W 17 26 9 14 1021.5 1021.2 0.0
23/01:00pm 19.1 15.0 8.7 51 5.5 W 20 30 11 16 1021.6 1021.3 0.0
23/12:30pm 18.9 14.9 8.3 50 5.6 W 19 30 10 16 1021.9 1021.6 0.0
23/12:00pm 18.1 13.2 8.4 53 5.1 W 24 32 13 17 1022.4 1022.1 0.0
23/11:30am 17.7 13.9 9.8 60 4.2 W 20 33 11 18 1022.9 1022.6 0.0
23/11:00am 16.3 12.5 9.7 65 3.5 W 20 28 11 15 1023.2 1023.0 0.0
23/10:30am 15.6 12.3 9.5 67 3.2 WNW 17 26 9 14 1023.3 1023.1 0.0
23/10:00am 14.1 10.7 9.3 73 2.5 WNW 17 22 9 12 1023.3 1023.1 0.0
23/09:30am 10.9 8.0 8.0 82 1.4 WNW 13 20 7 11 1023.5 1023.3 0.0
23/09:00am 10.9 7.6 8.1 83 1.4 WNW 15 20 8 11 1023.5 1023.3 0.0
23/08:30am 9.7 5.8 7.3 85 1.2 WNW 17 24 9 13 1023.1 1022.9 0.0
23/08:00am 9.0 5.8 7.0 87 0.9 WNW 13 17 7 9 1022.7 1022.4 0.0
23/07:30am 8.0 5.1 6.3 89 0.8 WNW 11 17 6 9 1022.2 1021.9 0.0
23/07:00am 7.6 5.0 5.9 89 0.8 NW 9 13 5 7 1021.9 1021.6 0.0
23/06:30am 7.4 4.3 5.5 88 0.9 WNW 11 15 6 8 1021.8 1021.5 0.0
23/06:00am 8.1 5.5 6.1 87 0.9 WNW 9 15 5 8 1021.5 1021.2 0.0
23/05:30am 7.7 5.0 5.7 87 0.9 NW 9 13 5 7 1021.4 1021.1 0.0
23/05:00am 7.7 4.6 5.5 86 1.0 NW 11 15 6 8 1021.0 1020.7 0.0
23/04:30am 7.6 4.8 5.1 84 1.1 WNW 9 11 5 6 1021.0 1020.7 0.0
23/04:00am 8.3 5.2 5.6 83 1.2 WNW 11 13 6 7 1021.2 1020.9 0.0
23/03:30am 8.5 6.1 5.4 81 1.4 WNW 7 9 4 5 1021.2 1020.9 0.0
23/03:00am 9.1 6.4 5.7 79 1.6 WNW 9 13 5 7 1021.2 1020.9 0.0
23/02:30am 9.2 6.2 5.8 79 1.6 NW 11 13 6 7 1021.2 1020.9 0.0
23/02:00am 9.6 6.6 5.8 77 1.8 WNW 11 15 6 8 1021.1 1020.8 0.0
23/01:30am 9.4 6.4 5.8 78 1.7 WNW 11 15 6 8 1021.3 1021.0 0.0
23/01:00am 9.1 6.4 5.5 78 1.7 WNW 9 11 5 6 1021.3 1021.0 0.0
23/12:30am 9.1 6.0 5.7 79 1.6 WNW 11 13 6 7 1021.4 1021.1 0.0
23/12:00am 9.0 6.2 5.2 77 1.7 WNW 9 11 5 6 1021.4 1021.1 0.0
 
Date/Time
WST
Temp
°C
App
Temp
°C
Dew
Point
°C
Rel
Hum
%
Delta-T
°C
Wind Press
QNH
hPa
Press
MSL
hPa
Rain since
9am
mm
Dir  Spd
km/h
Gust
km/h
Spd
kts
Gust
kts
22/11:30pm 9.9 7.2 5.7 75 2.0 WNW 9 11 5 6 1021.7 1021.4 0.0
22/11:00pm 9.6 7.3 5.6 76 1.8 WNW 7 11 4 6 1021.6 1021.3 0.0
22/10:30pm 9.7 6.6 5.5 75 1.9 WNW 11 13 6 7 1021.6 1021.3 0.0

Other formats

Comma delimited format used in spreadsheet applications
http://www.bom.gov.au/fwo/IDW60801/IDW60801.95636.axf

JavaScript Object Notation format (JSON) in row-major order
http://www.bom.gov.au/fwo/IDW60801/IDW60801.95636.json

Data quality

Most of these data are generated automatically and are frequently updated. Quality checks on data are not normally performed. It is possible for incorrect values to appear. Refer to information at About Latest Weather Observations and please check the disclaimer before using these data.